Adrian, Washington
Current Conditions -  °F | °C
As of 7:53 AM on Wednesday 22 Oct 2014 (Local Time) from KEPH Reporting Station
Overcast Overcast  
Wind Chill: 45°   Ceiling: 5000
Heat Index: 48°   Visibility: 10mi
Dew Point: 44°   Wind: 6mph
Humidity: 86%   Direction: 20°NNE
Pressure: 29.83"   Gusts: NA
Location:  47.4314°N, 119.485°W
Report Text: KEPH 221453Z AUTO 02005KT 10SM BKN050 OVC075 09/07 A2983 RMK AO2 SLP102 60001 T00890067 56008
Loading
Personal Weather Stations






























Interactive Weather Map New forecast layout! Learn more

10-Day Weather Forecast

Advertisements
Track Severe Weather on mobile